Time;durP1;ratioP1;P1;durP2;ratioP2;P2;SDS_P1;SDS_P2;PMS_P1;PMS_P2;Temp;Humidity;BMP_temperature;BMP_pressure;BME280_temperature;BME280_humidity;BME280_pressure;Samples;Min_cycle;Max_cycle;Signal;HPM_P1;HPM_P2
2021/01/28 00:01:36;;;;;;;31.62;14.23;;;;;;;1.74;65.84;99660.05;147352;1147;104527;-73
2021/01/28 00:04:39;;;;;;;28.25;12.88;;;;;;;1.75;65.72;99663.50;147477;1146;104551;-74
2021/01/28 00:07:42;;;;;;;27.10;12.37;;;;;;;1.77;65.79;99653.70;147479;1148;104463;-71
2021/01/28 00:10:45;;;;;;;22.37;12.17;;;;;;;1.81;66.12;99652.56;147511;1147;104458;-72
2021/01/28 00:13:49;;;;;;;23.92;12.58;;;;;;;1.82;65.49;99654.22;147601;1147;104566;-72
2021/01/28 00:16:52;;;;;;;58.68;18.20;;;;;;;1.80;65.95;99658.76;147677;1147;104636;-72
2021/01/28 00:19:55;;;;;;;32.05;12.03;;;;;;;1.84;66.03;99656.75;147507;1146;104613;-70
2021/01/28 00:22:58;;;;;;;36.17;13.05;;;;;;;1.82;66.07;99646.33;147486;1147;104561;-72
2021/01/28 00:26:02;;;;;;;34.40;13.08;;;;;;;1.82;66.08;99645.50;147315;1146;104494;-71
2021/01/28 00:29:06;;;;;;;29.25;13.45;;;;;;;1.84;65.89;99646.23;147450;1147;104912;-71
2021/01/28 00:32:09;;;;;;;26.57;12.03;;;;;;;1.86;65.49;99642.52;147751;1147;104726;-73
2021/01/28 00:35:14;;;;;;;19.67;9.40;;;;;;;1.87;66.16;99638.95;147489;1146;104530;-74
2021/01/28 00:38:20;;;;;;;17.57;8.40;;;;;;;1.87;65.22;99632.86;147478;1146;104468;-73
2021/01/28 00:41:24;;;;;;;16.65;8.13;;;;;;;1.87;66.10;99633.69;147623;1147;104463;-73
2021/01/28 00:44:27;;;;;;;16.32;8.15;;;;;;;1.88;64.94;99630.09;147330;1147;104553;-73
2021/01/28 00:47:30;;;;;;;15.57;7.67;;;;;;;1.87;65.07;99628.43;147418;1147;104612;-73
2021/01/28 00:50:35;;;;;;;16.15;8.63;;;;;;;1.87;64.81;99631.06;147306;1146;104550;-73
2021/01/28 00:53:38;;;;;;;18.27;8.80;;;;;;;1.86;64.85;99634.63;147388;1147;104889;-71
2021/01/28 00:56:41;;;;;;;21.30;9.58;;;;;;;1.87;64.69;99624.97;147415;1147;104553;-72
2021/01/28 00:59:44;;;;;;;24.87;11.67;;;;;;;1.81;64.67;99628.89;147279;1145;104898;-72
2021/01/28 01:02:48;;;;;;;26.25;13.53;;;;;;;1.83;65.44;99634.02;147381;1146;105068;-71
2021/01/28 01:05:52;;;;;;;15.10;7.95;;;;;;;1.85;64.99;99625.08;147574;1147;104566;-71
2021/01/28 01:08:56;;;;;;;22.85;12.03;;;;;;;1.85;64.75;99625.08;147638;1146;104550;-73
2021/01/28 01:12:10;;;;;;;15.23;7.45;;;;;;;1.81;65.05;99634.15;147380;1147;105098;-73
2021/01/28 01:15:15;;;;;;;16.80;8.85;;;;;;;1.83;64.82;99629.61;147327;1146;104485;-74
2021/01/28 01:18:20;;;;;;;15.68;6.03;;;;;;;1.83;65.10;99624.35;147588;1147;104626;-72
2021/01/28 01:21:23;;;;;;;12.73;6.40;;;;;;;1.83;65.05;99618.23;147421;1147;104586;-72
2021/01/28 01:24:40;;;;;;;12.35;6.22;;;;;;;1.81;64.33;99621.00;147356;1147;104536;-72
2021/01/28 01:27:44;;;;;;;16.15;8.70;;;;;;;1.82;64.98;99611.30;147324;1146;104832;-73
2021/01/28 01:31:07;;;;;;;11.78;6.85;;;;;;;1.82;64.46;99604.24;147387;1146;104478;-72
2021/01/28 01:34:12;;;;;;;9.10;5.53;;;;;;;1.85;64.81;99605.80;147456;1145;104630;-72
2021/01/28 01:37:15;;;;;;;7.50;3.87;;;;;;;1.85;64.22;99606.66;147672;1147;104566;-72
2021/01/28 01:40:24;;;;;;;9.05;4.40;;;;;;;1.89;63.96;99599.38;147582;1146;104483;-73
2021/01/28 01:43:28;;;;;;;6.15;3.22;;;;;;;1.90;64.06;99607.14;147578;1147;104518;-73
2021/01/28 01:46:34;;;;;;;8.55;4.97;;;;;;;1.91;63.32;99593.05;147682;1147;104933;-73
2021/01/28 01:49:38;;;;;;;7.62;4.80;;;;;;;1.89;64.48;99587.06;147292;1147;104601;-74
2021/01/28 01:52:41;;;;;;;8.63;5.20;;;;;;;1.91;64.50;99581.69;147408;1147;104613;-75
2021/01/28 01:55:50;;;;;;;9.85;6.28;;;;;;;1.91;63.37;99579.06;147180;1147;104462;-76
2021/01/28 01:59:00;;;;;;;12.03;6.80;;;;;;;1.93;63.49;99575.35;147148;1147;104534;-76
2021/01/28 02:02:24;;;;;;;24.05;12.70;;;;;;;1.90;64.21;99569.48;147487;1145;104572;-74
2021/01/28 02:05:57;;;;;;;13.80;6.62;;;;;;;1.90;64.76;99559.78;147696;1147;104652;-73
2021/01/28 02:09:36;;;;;;;13.13;8.45;;;;;;;1.83;62.20;99552.47;147152;1150;104716;-73
2021/01/28 02:12:51;;;;;;;29.85;14.55;;;;;;;1.71;63.59;99547.19;147616;1147;104469;-74
2021/01/28 02:15:56;;;;;;;52.50;23.30;;;;;;;1.69;64.08;99545.61;147738;1147;104545;-72
2021/01/28 02:19:02;;;;;;;40.92;17.52;;;;;;;1.69;63.35;99537.72;147492;1146;104550;-73
2021/01/28 02:22:06;;;;;;;28.45;12.18;;;;;;;1.69;63.46;99540.34;147458;1146;104651;-73
2021/01/28 02:25:21;;;;;;;17.80;8.85;;;;;;;1.62;63.88;99541.75;147735;1147;104630;-73
2021/01/28 02:28:25;;;;;;;16.43;8.10;;;;;;;1.59;63.36;99545.45;147742;1146;104542;-73
2021/01/28 02:31:30;;;;;;;30.37;14.73;;;;;;;1.59;63.99;99536.73;147744;1146;104553;-74
2021/01/28 02:34:35;;;;;;;20.50;10.15;;;;;;;1.56;63.27;99530.75;147840;1147;104502;-75
2021/01/28 02:37:50;;;;;;;15.07;7.20;;;;;;;1.55;63.59;99520.34;147668;1147;104623;-73
2021/01/28 02:40:57;;;;;;;52.40;20.77;;;;;;;1.51;63.68;99519.72;147758;1147;104477;-74
2021/01/28 02:44:01;;;;;;;28.38;12.25;;;;;;;1.43;63.50;99506.31;147746;1146;104569;-73
2021/01/28 02:47:30;;;;;;;32.67;15.30;;;;;;;1.40;63.37;99506.53;147397;1147;104602;-72
2021/01/28 02:50:50;;;;;;;;;;;;;;;1.38;63.57;99511.06;147713;1146;104473;-72
2021/01/28 02:53:56;;;;;;;12.05;5.97;;;;;;;1.36;64.02;99510.34;147672;1146;104478;-72
2021/01/28 02:57:00;;;;;;;9.68;5.28;;;;;;;1.31;63.89;99507.20;147615;1146;105059;-73
2021/01/28 03:00:07;;;;;;;12.45;5.58;;;;;;;1.29;63.57;99501.22;147754;1147;104556;-72
2021/01/28 03:03:13;;;;;;;10.72;5.10;;;;;;;1.28;64.45;99495.12;147897;1147;104575;-73
2021/01/28 03:06:26;;;;;;;8.58;4.62;;;;;;;1.27;63.84;99500.49;147704;1147;104600;-73
2021/01/28 03:09:35;;;;;;;11.83;5.80;;;;;;;1.25;64.18;99505.89;147737;1146;104633;-73
2021/01/28 03:12:52;;;;;;;13.60;5.58;;;;;;;1.24;64.44;99503.36;147754;1147;104550;-72
2021/01/28 03:16:19;;;;;;;17.80;8.57;;;;;;;1.25;64.29;99505.89;147692;1146;104483;-71
2021/01/28 03:19:29;;;;;;;15.07;5.73;;;;;;;1.22;64.27;99500.84;147773;1147;104465;-72
2021/01/28 03:22:46;;;;;;;9.18;4.97;;;;;;;1.22;64.39;99489.50;147707;1146;104572;-71
2021/01/28 03:26:10;;;;;;;12.35;6.08;;;;;;;1.21;64.07;99491.27;147757;1146;104636;-72
2021/01/28 03:29:15;;;;;;;12.13;6.80;;;;;;;1.21;64.37;99491.27;147842;1147;104467;-72
2021/01/28 03:32:18;;;;;;;9.85;4.83;;;;;;;1.22;63.80;99486.88;147820;1146;104585;-74
2021/01/28 03:35:24;;;;;;;10.53;5.35;;;;;;;1.21;64.43;99485.18;147560;1146;104553;-75
2021/01/28 03:38:28;;;;;;;13.98;6.45;;;;;;;1.16;64.03;99477.65;147644;1146;104466;-74
2021/01/28 03:41:33;;;;;;;15.88;8.28;;;;;;;1.11;64.45;99485.84;147715;1146;104566;-72
2021/01/28 03:44:37;;;;;;;24.60;11.57;;;;;;;1.07;63.94;99479.14;147786;1148;104511;-72
2021/01/28 03:47:42;;;;;;;48.05;20.02;;;;;;;1.02;64.24;99470.78;147732;1147;104540;-72
2021/01/28 03:50:50;;;;;;;21.33;10.72;;;;;;;1.04;63.63;99471.50;147770;1147;104480;-71
2021/01/28 03:54:05;;;;;;;13.58;7.15;;;;;;;1.03;63.68;99469.81;147807;1147;104553;-74
2021/01/28 03:57:19;;;;;;;14.87;6.20;;;;;;;1.05;64.34;99472.33;147795;1147;104560;-73
2021/01/28 04:00:35;;;;;;;9.63;5.22;;;;;;;1.03;63.78;99459.30;147799;1146;104532;-75
2021/01/28 04:03:45;;;;;;;9.37;4.77;;;;;;;1.03;63.93;99459.30;147749;1147;104548;-73
2021/01/28 04:07:16;;;;;;;10.80;5.37;;;;;;;1.02;63.86;99452.39;147710;1147;105104;-76
2021/01/28 04:10:25;;;;;;;9.28;4.92;;;;;;;1.03;64.33;99456.67;147784;1148;104921;-76
2021/01/28 04:13:31;;;;;;;15.35;8.25;;;;;;;1.09;64.44;99450.14;147769;1147;104541;-77
2021/01/28 04:16:34;;;;;;;15.98;9.03;;;;;;;1.08;64.26;99446.68;147847;1147;104503;-77
2021/01/28 04:19:37;;;;;;;43.63;18.83;;;;;;;1.11;64.06;99435.92;147793;1147;104553;-77
2021/01/28 04:22:41;;;;;;;75.73;30.80;;;;;;;1.16;64.00;99439.06;147799;1147;104566;-77
2021/01/28 04:25:44;;;;;;;287.27;112.17;;;;;;;1.18;63.36;99429.27;147825;1147;104556;-76
2021/01/28 04:28:48;;;;;;;141.10;61.60;;;;;;;1.20;64.41;99423.08;147810;1147;104572;-75
2021/01/28 04:32:20;;;;;;;48.83;22.50;;;;;;;1.23;64.09;99417.58;147768;1147;104552;-78
2021/01/28 04:35:47;;;;;;;98.05;48.35;;;;;;;1.22;64.34;99415.92;147719;1146;104594;-78
2021/01/28 04:38:50;;;;;;;164.77;71.00;;;;;;;1.18;64.34;99410.88;147266;1146;104566;-78
2021/01/28 04:41:54;;;;;;;215.75;106.87;;;;;;;1.22;63.99;99406.23;147125;1147;104553;-79
2021/01/28 04:44:57;;;;;;;117.03;58.20;;;;;;;1.23;64.45;99407.90;147180;1146;104713;-80
2021/01/28 04:48:06;;;;;;;94.58;45.78;;;;;;;1.26;63.97;99402.42;147307;1147;104538;-76
2021/01/28 04:51:30;;;;;;;40.63;21.20;;;;;;;1.24;64.13;99399.08;147221;1146;104466;-75
2021/01/28 04:54:36;;;;;;;155.97;82.30;;;;;;;1.24;63.81;99391.19;147154;1147;104479;-77
2021/01/28 04:57:44;;;;;;;130.33;75.07;;;;;;;1.25;63.96;99384.14;147205;1147;104577;-77
2021/01/28 05:00:49;;;;;;;51.50;29.72;;;;;;;1.22;64.11;99387.02;147359;1148;104578;-76
2021/01/28 05:04:19;;;;;;;60.70;34.65;;;;;;;1.21;63.33;99373.02;147541;1147;104780;-76
2021/01/28 05:07:41;;;;;;;27.25;16.87;;;;;;;1.24;63.57;99369.34;147741;1147;104566;-78
2021/01/28 05:11:23;;;;;;;39.92;23.40;;;;;;;1.27;63.65;99369.09;147734;1147;104671;-77
2021/01/28 05:15:13;;;;;;;57.33;35.37;;;;;;;1.22;63.56;99363.37;147725;1147;104620;-71
2021/01/28 05:18:37;;;;;;;22.63;13.03;;;;;;;1.18;63.60;99363.59;147787;1147;104647;-71
2021/01/28 05:22:23;;;;;;;42.75;22.00;;;;;;;1.16;63.78;99352.35;147628;1147;104540;-71
2021/01/28 05:25:42;;;;;;;32.53;18.27;;;;;;;1.12;63.38;99342.20;147810;1147;104465;-72
2021/01/28 05:28:51;;;;;;;26.57;14.18;;;;;;;1.06;63.54;99346.13;147772;1147;104553;-73
2021/01/28 05:32:00;;;;;;;31.02;16.07;;;;;;;1.02;63.68;99347.31;147768;1147;104453;-71
2021/01/28 05:35:34;;;;;;;22.70;10.50;;;;;;;0.95;63.56;99348.71;147617;1146;104550;-69
2021/01/28 05:38:57;;;;;;;24.43;10.68;;;;;;;0.88;63.50;99347.48;147771;1147;104489;-71
2021/01/28 05:42:20;;;;;;;41.28;21.62;;;;;;;0.88;63.26;99339.61;147665;1147;104474;-70
2021/01/28 05:45:38;;;;;;;24.25;11.97;;;;;;;0.86;63.58;99338.88;147649;1147;104548;-71
2021/01/28 05:49:18;;;;;;;20.90;8.73;;;;;;;0.81;63.51;99331.36;147684;1147;104724;-72
2021/01/28 05:52:29;;;;;;;27.50;14.10;;;;;;;0.82;63.70;99329.56;147740;1147;104522;-70
2021/01/28 05:55:48;;;;;;;19.85;10.18;;;;;;;0.77;62.93;99325.49;147745;1147;104550;-72
2021/01/28 05:59:03;;;;;;;30.80;18.00;;;;;;;0.73;63.25;99313.55;147642;1147;104480;-71
2021/01/28 06:02:18;;;;;;;;;;;;;;;0.67;63.30;99319.22;147698;1147;104812;-70
2021/01/28 06:06:16;;;;;;;21.27;10.82;;;;;;;0.62;63.13;99313.50;146996;1150;104723;-70
2021/01/28 06:09:56;;;;;;;23.32;11.78;;;;;;;0.56;63.31;99311.33;147082;1148;104632;-69
2021/01/28 06:13:45;;;;;;;23.00;11.68;;;;;;;0.49;63.30;99303.05;147563;1148;104882;-73
2021/01/28 06:17:53;;;;;;;27.25;13.48;;;;;;;0.37;63.40;99306.58;147310;1147;104466;-71
2021/01/28 06:22:03;;;;;;;19.87;10.05;;;;;;;0.29;63.42;99307.13;147472;1147;104530;-71
2021/01/28 06:26:02;;;;;;;18.15;8.90;;;;;;;0.21;63.00;99303.38;147055;1150;104594;-70
2021/01/28 06:29:44;;;;;;;248.80;94.43;;;;;;;0.17;63.44;99293.13;146884;1148;104687;-70
2021/01/28 06:33:11;;;;;;;618.53;237.23;;;;;;;0.17;63.40;99281.77;147096;1146;104555;-71
2021/01/28 06:36:52;;;;;;;1026.83;441.70;;;;;;;0.16;63.53;99277.48;147552;1147;104496;-70
2021/01/28 06:40:26;;;;;;;483.27;178.05;;;;;;;0.14;63.76;99271.52;147528;1146;104712;-72
2021/01/28 06:44:02;;;;;;;250.57;92.47;;;;;;;0.11;63.36;99262.06;147358;1146;104595;-71
2021/01/28 06:47:41;;;;;;;250.53;95.57;;;;;;;0.11;63.32;99263.86;147215;1145;104578;-70
2021/01/28 06:51:07;;;;;;;165.28;71.67;;;;;;;0.13;63.40;99248.84;147338;1147;104606;-70
2021/01/28 06:54:21;;;;;;;156.47;67.22;;;;;;;0.12;62.95;99247.19;147159;1145;104457;-71
2021/01/28 06:57:52;;;;;;;128.00;55.85;;;;;;;0.10;63.23;99238.59;147282;1146;104905;-70
2021/01/28 07:01:16;;;;;;;63.98;34.18;;;;;;;0.08;62.71;99238.70;147263;1147;104557;-70
2021/01/28 07:04:28;;;;;;;33.42;16.90;;;;;;;0.09;63.42;99237.73;147249;1146;104559;-70
2021/01/28 07:07:48;;;;;;;36.42;20.75;;;;;;;0.11;63.23;99225.34;147271;1147;104491;-70
2021/01/28 07:11:22;;;;;;;37.85;21.45;;;;;;;0.13;62.84;99217.36;147071;1147;104542;-71
2021/01/28 07:14:48;;;;;;;25.00;16.05;;;;;;;0.14;63.10;99213.81;147238;1147;104479;-70
2021/01/28 07:18:19;;;;;;;52.53;20.02;;;;;;;0.16;63.60;99202.24;147133;1146;104548;-70
2021/01/28 07:21:33;;;;;;;24.80;12.80;;;;;;;0.21;63.30;99199.27;147510;1147;104598;-71
2021/01/28 07:24:41;;;;;;;23.62;11.90;;;;;;;0.26;63.16;99191.08;147629;1146;104515;-69
2021/01/28 07:28:00;;;;;;;25.32;13.13;;;;;;;0.31;63.12;99181.91;147478;1147;104479;-72
2021/01/28 07:31:40;;;;;;;25.32;12.85;;;;;;;0.35;62.77;99179.91;147642;1147;104475;-70
2021/01/28 07:35:03;;;;;;;22.40;10.35;;;;;;;0.42;63.16;99167.97;147649;1146;104932;-71
2021/01/28 07:38:47;;;;;;;22.10;12.45;;;;;;;0.53;63.00;99165.38;147609;1147;104550;-71
2021/01/28 07:42:26;;;;;;;23.65;11.65;;;;;;;0.71;63.03;99149.18;147627;1147;104954;-70
2021/01/28 07:46:09;;;;;;;24.57;13.03;;;;;;;0.82;62.85;99140.48;147306;1147;104705;-71
2021/01/28 07:49:28;;;;;;;20.50;9.83;;;;;;;0.92;63.31;99141.44;147611;1147;104460;-72
2021/01/28 07:52:49;;;;;;;24.63;11.93;;;;;;;1.06;62.89;99162.23;147680;1146;104549;-71
2021/01/28 07:55:52;;;;;;;28.12;14.53;;;;;;;1.12;62.44;99158.30;147835;1147;104594;-69
2021/01/28 07:58:56;;;;;;;28.57;14.43;;;;;;;1.19;62.68;99148.95;147722;1147;104583;-71
2021/01/28 08:02:15;;;;;;;34.85;19.80;;;;;;;1.22;62.96;99145.27;147814;1147;104512;-73
2021/01/28 08:05:23;;;;;;;35.38;18.62;;;;;;;1.25;62.26;99152.89;147747;1146;104561;-69
2021/01/28 08:08:26;;;;;;;26.87;15.50;;;;;;;1.33;62.75;99155.77;147761;1147;104562;-71
2021/01/28 08:11:30;;;;;;;24.37;13.55;;;;;;;1.41;62.08;99152.53;147784;1147;104646;-72
2021/01/28 08:14:34;;;;;;;26.82;13.62;;;;;;;1.47;61.95;99147.61;147637;1147;104974;-71
2021/01/28 08:17:38;;;;;;;26.50;12.93;;;;;;;1.56;62.00;99152.14;147708;1146;104464;-72
2021/01/28 08:20:41;;;;;;;24.67;13.95;;;;;;;1.69;60.94;99151.14;147556;1147;104577;-72
2021/01/28 08:23:45;;;;;;;24.87;12.70;;;;;;;1.76;62.25;99147.89;147734;1147;104562;-71
2021/01/28 08:26:48;;;;;;;26.73;14.47;;;;;;;1.84;62.03;99139.37;147641;1147;104583;-71
2021/01/28 08:30:05;;;;;;;24.27;12.70;;;;;;;1.93;62.06;99140.44;147240;1146;104533;-71
2021/01/28 08:33:14;;;;;;;24.98;13.15;;;;;;;2.01;61.50;99124.86;147430;1146;104479;-71
2021/01/28 08:36:23;;;;;;;33.28;15.80;;;;;;;2.08;61.95;99120.77;147823;1146;104476;-71
2021/01/28 08:39:30;;;;;;;27.10;14.33;;;;;;;2.14;61.90;99122.05;147780;1147;104459;-68
2021/01/28 08:42:33;;;;;;;27.43;14.47;;;;;;;2.20;61.58;99123.34;147693;1146;104603;-71
2021/01/28 08:45:38;;;;;;;113.00;45.30;;;;;;;2.25;61.33;99115.88;147788;1148;104451;-72
2021/01/28 08:48:42;;;;;;;106.67;43.02;;;;;;;2.33;61.07;99116.92;147738;1147;104563;-70
2021/01/28 08:51:53;;;;;;;43.87;20.40;;;;;;;2.43;62.16;99103.81;147655;1146;104553;-71
2021/01/28 08:54:56;;;;;;;222.73;87.78;;;;;;;2.49;61.40;99092.77;147505;1146;104661;-71
2021/01/28 08:58:06;;;;;;;46.67;22.73;;;;;;;2.58;60.39;99087.67;147744;1146;104636;-71
2021/01/28 09:01:13;;;;;;;30.02;15.43;;;;;;;2.60;60.68;99076.06;147349;1146;104543;-71
2021/01/28 09:04:23;;;;;;;29.80;14.87;;;;;;;2.64;60.70;99072.20;147623;1146;104573;-72
2021/01/28 09:07:49;;;;;;;25.17;14.20;;;;;;;2.66;60.83;99062.36;147665;1147;104540;-72
2021/01/28 09:10:52;;;;;;;25.20;13.95;;;;;;;2.68;60.71;99052.52;147746;1147;104538;-71
2021/01/28 09:14:14;;;;;;;27.22;14.60;;;;;;;2.72;60.58;99056.56;147695;1147;104609;-70
2021/01/28 09:17:22;;;;;;;;;;;;;;;2.78;60.72;99057.00;147667;1146;104596;-71
2021/01/28 09:20:33;;;;;;;26.27;14.40;;;;;;;2.84;60.93;99051.20;147664;1146;104561;-70
2021/01/28 09:23:37;;;;;;;27.60;15.03;;;;;;;2.96;60.34;99044.84;147788;1147;104482;-71
2021/01/28 09:26:40;;;;;;;27.90;15.85;;;;;;;3.02;59.71;99041.70;147836;1146;104468;-72
2021/01/28 09:29:45;;;;;;;31.70;16.95;;;;;;;3.05;60.84;99024.77;147775;1147;104705;-71
2021/01/28 09:32:49;;;;;;;30.25;17.15;;;;;;;3.08;60.30;99025.34;147703;1146;104603;-73
2021/01/28 09:36:05;;;;;;;33.63;16.73;;;;;;;3.08;60.48;99014.80;147175;1146;104462;-72
2021/01/28 09:39:15;;;;;;;36.17;18.90;;;;;;;3.09;60.15;99008.54;147408;1147;104816;-71
2021/01/28 09:42:28;;;;;;;45.40;22.62;;;;;;;3.09;60.47;99016.45;147798;1146;104487;-71
2021/01/28 09:45:31;;;;;;;44.55;24.77;;;;;;;3.06;60.14;99006.20;147744;1147;104524;-71
2021/01/28 09:48:34;;;;;;;34.78;18.87;;;;;;;3.05;60.27;99012.42;147767;1147;104529;-71
2021/01/28 09:51:38;;;;;;;45.05;26.75;;;;;;;3.02;60.41;99010.08;147779;1147;104553;-71
2021/01/28 09:54:41;;;;;;;45.63;24.45;;;;;;;3.03;61.28;99001.19;147463;1147;104476;-72
2021/01/28 09:57:44;;;;;;;31.15;18.98;;;;;;;3.05;60.78;98996.61;147729;1147;104572;-70
2021/01/28 10:00:47;;;;;;;34.83;18.87;;;;;;;3.05;59.71;98985.24;147732;1147;104721;-71
2021/01/28 10:03:51;;;;;;;33.00;19.42;;;;;;;3.04;57.49;98976.52;147639;1147;104536;-71
2021/01/28 10:06:54;;;;;;;34.95;18.62;;;;;;;2.99;59.97;98970.81;147616;1146;104464;-72
2021/01/28 10:09:57;;;;;;;32.83;19.00;;;;;;;2.97;59.15;98967.48;147675;1147;104445;-71
2021/01/28 10:13:03;;;;;;;36.90;18.93;;;;;;;2.98;59.57;98963.86;147342;1147;104456;-70
2021/01/28 10:16:06;;;;;;;33.45;17.85;;;;;;;3.01;60.72;98962.77;147677;1147;104825;-70
2021/01/28 10:19:09;;;;;;;27.95;15.72;;;;;;;2.98;59.84;98955.95;147605;1146;104844;-72
2021/01/28 10:22:16;;;;;;;32.33;17.73;;;;;;;3.01;59.87;98953.06;147708;1148;104489;-71
2021/01/28 10:25:22;;;;;;;32.03;18.00;;;;;;;3.06;59.21;98942.95;147411;1147;104503;-70
2021/01/28 10:28:25;;;;;;;31.83;17.50;;;;;;;3.06;59.98;98945.58;147217;1146;104550;-71
2021/01/28 10:31:29;;;;;;;31.97;18.00;;;;;;;3.08;60.79;98951.55;147568;1146;104595;-71
2021/01/28 10:34:32;;;;;;;34.67;19.00;;;;;;;3.07;59.52;98944.59;147146;1147;104585;-71
2021/01/28 10:37:35;;;;;;;31.33;17.93;;;;;;;3.05;59.48;98938.63;147257;1147;104489;-71
2021/01/28 10:40:38;;;;;;;56.58;30.82;;;;;;;3.04;59.91;98944.89;147585;1146;104548;-71
2021/01/28 10:43:41;;;;;;;36.42;18.75;;;;;;;3.04;59.62;98942.25;147781;1147;104541;-73
2021/01/28 10:46:45;;;;;;;45.73;24.10;;;;;;;3.03;60.89;98937.94;147629;1148;105210;-71
2021/01/28 10:49:48;;;;;;;38.85;20.37;;;;;;;2.97;60.70;98927.13;147552;1148;104550;-73
2021/01/28 10:52:51;;;;;;;50.00;24.35;;;;;;;2.90;60.58;98921.56;147734;1147;104529;-70
2021/01/28 10:55:54;;;;;;;35.23;18.77;;;;;;;2.88;60.33;98902.42;147578;1147;104549;-71
2021/01/28 10:58:57;;;;;;;47.23;26.42;;;;;;;2.89;61.96;98904.11;147771;1147;104473;-70
2021/01/28 11:02:01;;;;;;;45.67;24.30;;;;;;;2.90;60.96;98890.77;147757;1147;104766;-72
2021/01/28 11:05:06;;;;;;;37.43;20.00;;;;;;;2.92;60.64;98890.64;147807;1147;104511;-70
2021/01/28 11:08:10;;;;;;;34.60;18.60;;;;;;;2.97;61.65;98879.70;147803;1147;104588;-71
2021/01/28 11:11:15;;;;;;;35.63;20.02;;;;;;;2.97;61.20;98862.08;147660;1147;104458;-71
2021/01/28 11:14:18;;;;;;;32.75;18.75;;;;;;;3.00;60.44;98859.15;147287;1147;104547;-72
2021/01/28 11:17:21;;;;;;;35.48;18.90;;;;;;;2.98;61.49;98861.09;147717;1147;104611;-70
2021/01/28 11:20:24;;;;;;;36.38;20.00;;;;;;;3.00;61.26;98848.61;147734;1146;104552;-71
2021/01/28 11:23:28;;;;;;;34.07;18.43;;;;;;;3.01;61.25;98844.20;147794;1148;104582;-72
2021/01/28 11:26:31;;;;;;;32.48;18.02;;;;;;;2.94;60.08;98838.63;147748;1146;104450;-71
2021/01/28 11:29:34;;;;;;;30.05;15.70;;;;;;;2.86;60.34;98833.23;147765;1147;104567;-71
2021/01/28 11:32:37;;;;;;;37.35;18.90;;;;;;;2.81;61.08;98831.03;147203;1146;104648;-73
2021/01/28 11:35:40;;;;;;;28.87;15.60;;;;;;;2.77;61.28;98818.26;147612;1147;105032;-72
2021/01/28 11:38:43;;;;;;;35.03;18.20;;;;;;;2.80;60.88;98812.73;147668;1147;104497;-70
2021/01/28 11:41:46;;;;;;;38.17;20.10;;;;;;;2.78;60.91;98796.23;147709;1146;104607;-72
2021/01/28 11:44:49;;;;;;;35.20;18.13;;;;;;;2.78;60.59;98790.96;147716;1148;104549;-70
2021/01/28 11:47:52;;;;;;;35.40;19.50;;;;;;;2.73;60.79;98788.73;147598;1148;104616;-72
2021/01/28 11:50:56;;;;;;;35.98;19.65;;;;;;;2.65;61.43;98780.70;147667;1147;104566;-71
2021/01/28 11:53:59;;;;;;;33.60;19.57;;;;;;;2.67;60.30;98776.12;147659;1147;104514;-71
2021/01/28 11:57:02;;;;;;;34.75;19.55;;;;;;;2.62;61.94;98778.33;147584;1147;104588;-72
2021/01/28 12:00:08;;;;;;;36.68;20.20;;;;;;;2.62;62.23;98771.28;147219;1146;104550;-72
2021/01/28 12:03:15;;;;;;;40.43;22.95;;;;;;;2.63;62.04;98772.11;147721;1147;104699;-70
2021/01/28 12:06:20;;;;;;;51.88;28.07;;;;;;;2.57;62.45;98770.86;147564;1147;104582;-75
2021/01/28 12:09:28;;;;;;;85.80;41.42;;;;;;;2.57;63.21;98762.95;147654;1147;104639;-71
2021/01/28 12:12:32;;;;;;;78.17;38.50;;;;;;;2.57;63.19;98762.13;147781;1147;104958;-71
2021/01/28 12:15:35;;;;;;;68.22;33.95;;;;;;;2.59;62.00;98755.75;147518;1146;104569;-70
2021/01/28 12:18:38;;;;;;;57.47;29.43;;;;;;;2.60;62.11;98748.67;147766;1147;104663;-71
2021/01/28 12:21:41;;;;;;;55.50;29.05;;;;;;;2.57;63.68;98747.16;147293;1147;104550;-71
2021/01/28 12:24:45;;;;;;;80.37;40.17;;;;;;;2.55;62.21;98743.83;147128;1147;104473;-72
2021/01/28 12:27:48;;;;;;;54.93;27.87;;;;;;;2.54;62.23;98743.02;147416;1146;104463;-71
2021/01/28 12:30:52;;;;;;;62.60;30.27;;;;;;;2.56;64.11;98734.98;147677;1147;104532;-72
2021/01/28 12:33:55;;;;;;;92.87;40.83;;;;;;;2.51;62.66;98737.19;147322;1147;104911;-70
2021/01/28 12:36:58;;;;;;;53.13;28.17;;;;;;;2.48;64.00;98729.55;147454;1146;104575;-72
2021/01/28 12:40:01;;;;;;;54.90;25.13;;;;;;;2.45;62.73;98714.05;147750;1146;104548;-71
2021/01/28 12:43:06;;;;;;;49.87;27.47;;;;;;;2.43;63.75;98708.92;147538;1147;104812;-71
2021/01/28 12:46:09;;;;;;;61.40;30.12;;;;;;;2.50;64.45;98710.03;147478;1147;104486;-71
2021/01/28 12:49:12;;;;;;;58.47;31.80;;;;;;;2.64;63.78;98710.58;147716;1147;104592;-72
2021/01/28 12:52:17;;;;;;;107.80;54.13;;;;;;;2.78;62.88;98701.41;147703;1146;104518;-73
2021/01/28 12:55:21;;;;;;;109.35;52.00;;;;;;;2.86;63.51;98694.44;147726;1146;104657;-72
2021/01/28 12:58:24;;;;;;;90.57;43.25;;;;;;;2.82;63.41;98705.41;147718;1147;104405;-71
2021/01/28 13:01:28;;;;;;;1122.23;572.42;;;;;;;2.78;63.76;98694.33;147874;1146;104564;-72
2021/01/28 13:04:31;;;;;;;623.28;308.45;;;;;;;2.77;63.90;98695.28;147768;1147;104641;-70
2021/01/28 13:07:34;;;;;;;627.67;297.67;;;;;;;2.72;63.67;98682.55;147681;1147;104959;-71
2021/01/28 13:10:37;;;;;;;74.57;34.87;;;;;;;2.68;63.39;98685.62;147667;1146;104471;-72
2021/01/28 13:13:42;;;;;;;179.05;83.55;;;;;;;2.74;64.40;98685.88;147656;1147;104476;-71
2021/01/28 13:16:45;;;;;;;83.10;42.13;;;;;;;2.76;63.35;98683.10;147781;1147;104447;-71
2021/01/28 13:19:51;;;;;;;78.03;42.20;;;;;;;2.77;63.86;98674.21;147614;1147;104563;-71
2021/01/28 13:22:54;;;;;;;69.20;35.85;;;;;;;2.75;63.92;98677.02;147892;1147;104504;-71
2021/01/28 13:25:57;;;;;;;77.53;46.33;;;;;;;2.67;63.68;98679.50;147732;1148;104532;-72
2021/01/28 13:29:00;;;;;;;82.02;50.30;;;;;;;2.67;64.80;98670.78;147807;1147;104454;-71
2021/01/28 13:32:04;;;;;;;57.10;32.07;;;;;;;2.63;63.36;98659.70;147794;1147;104556;-72
2021/01/28 13:35:11;;;;;;;44.48;26.25;;;;;;;2.61;64.27;98660.82;147634;1147;104528;-72
2021/01/28 13:38:16;;;;;;;53.70;33.03;;;;;;;2.58;65.03;98648.78;147701;1147;104541;-71
2021/01/28 13:41:20;;;;;;;64.10;35.55;;;;;;;2.63;63.71;98645.70;147712;1147;104464;-71
2021/01/28 13:44:23;;;;;;;82.17;45.30;;;;;;;2.64;64.64;98648.20;147594;1147;104548;-73
2021/01/28 13:47:26;;;;;;;170.02;92.02;;;;;;;2.70;65.34;98642.36;147790;1147;104510;-71
2021/01/28 13:50:32;;;;;;;64.95;36.75;;;;;;;2.64;65.15;98642.94;147664;1147;104725;-71
2021/01/28 13:53:35;;;;;;;88.78;52.48;;;;;;;2.65;64.71;98644.58;147720;1147;104572;-70
2021/01/28 13:56:39;;;;;;;90.53;56.20;;;;;;;2.68;65.08;98635.59;147623;1147;104493;-72
2021/01/28 13:59:42;;;;;;;157.15;103.80;;;;;;;2.69;64.99;98630.16;147518;1147;104532;-71
2021/01/28 14:02:46;;;;;;;59.80;34.90;;;;;;;2.68;65.61;98620.61;147641;1147;104485;-71
2021/01/28 14:05:49;;;;;;;187.30;112.70;;;;;;;2.65;65.70;98610.34;147722;1147;104656;-71
2021/01/28 14:08:52;;;;;;;75.92;43.65;;;;;;;2.68;64.67;98614.52;147578;1147;104495;-70
2021/01/28 14:11:55;;;;;;;156.83;100.67;;;;;;;2.62;64.72;98608.02;147479;1147;104464;-72
2021/01/28 14:14:59;;;;;;;129.10;84.45;;;;;;;2.57;65.35;98604.97;147741;1146;104966;-71
2021/01/28 14:18:02;;;;;;;67.72;39.63;;;;;;;2.51;65.64;98592.39;147357;1146;104462;-71
2021/01/28 14:21:05;;;;;;;100.65;57.05;;;;;;;2.48;65.55;98595.29;147270;1146;104669;-71
2021/01/28 14:24:10;;;;;;;82.40;45.45;;;;;;;2.53;66.01;98585.17;147542;1148;104473;-71
2021/01/28 14:27:13;;;;;;;94.60;59.42;;;;;;;2.62;65.99;98581.69;147078;1146;104556;-71
2021/01/28 14:30:21;;;;;;;47.27;27.75;;;;;;;2.67;65.59;98587.33;147521;1146;104464;-70